Time;durP1;ratioP1;P1;durP2;ratioP2;P2;SDS_P1;SDS_P2;PMS_P1;PMS_P2;Temp;Humidity;BMP_temperature;BMP_pressure;BME280_temperature;BME280_humidity;BME280_pressure;Samples;Min_cycle;Max_cycle;Signal;HPM_P1;HPM_P2
2021/11/07 00:09:38;;;;;;;4.97;4.12;;;;;;;16.81;53.27;100530.80;1734705;82;21108;-69
2021/11/07 00:12:11;;;;;;;4.62;4.00;;;;;;;16.79;53.29;100530.67;1739198;82;21046;-68
2021/11/07 00:14:30;;;;;;;4.17;3.77;;;;;;;16.78;53.28;100518.27;1701813;83;21057;-69
2021/11/07 00:16:57;;;;;;;5.80;4.08;;;;;;;16.77;53.25;100521.98;1729397;80;21549;-68
2021/11/07 00:19:31;;;;;;;5.78;4.50;;;;;;;16.75;53.27;100519.48;1725887;82;21002;-69
2021/11/07 00:24:28;;;;;;;4.92;4.42;;;;;;;16.74;53.21;100516.47;1672290;82;21519;-68
2021/11/07 00:29:29;;;;;;;5.45;4.20;;;;;;;16.71;53.21;100520.38;1664825;83;21490;-69
2021/11/07 00:32:05;;;;;;;4.85;4.15;;;;;;;16.69;53.20;100511.68;1689554;84;21517;-69
2021/11/07 00:34:49;;;;;;;4.50;3.85;;;;;;;16.70;53.17;100501.77;1699940;83;21134;-69
2021/11/07 00:36:58;;;;;;;5.53;4.50;;;;;;;16.69;53.13;100500.12;1680239;82;21120;-69
2021/11/07 00:42:25;;;;;;;4.12;3.72;;;;;;;16.66;53.15;100488.42;1722921;82;21097;-68
2021/11/07 00:44:54;;;;;;;4.67;3.95;;;;;;;16.65;53.11;100485.41;1728472;81;21063;-69
2021/11/07 00:49:47;;;;;;;4.47;4.00;;;;;;;16.63;53.09;100488.30;1726706;81;21644;-67
2021/11/07 00:52:22;;;;;;;4.72;4.33;;;;;;;16.62;53.10;100481.26;1717341;81;21049;-69
2021/11/07 00:54:59;;;;;;;5.03;4.40;;;;;;;16.61;53.08;100487.66;1729451;82;21073;-71
2021/11/07 01:00:24;;;;;;;5.17;4.15;;;;;;;16.61;53.08;100484.13;1728686;82;22006;-69
2021/11/07 01:02:43;;;;;;;4.22;3.83;;;;;;;16.59;53.05;100492.38;1714675;82;21058;-69
2021/11/07 01:05:15;;;;;;;4.08;3.52;;;;;;;16.57;53.06;100480.16;1692198;84;21076;-68
2021/11/07 01:07:41;;;;;;;4.45;3.98;;;;;;;16.56;53.04;100476.66;1692278;83;21011;-69
2021/11/07 01:10:08;;;;;;;5.12;3.80;;;;;;;16.55;53.05;100472.81;1687689;83;21659;-69
2021/11/07 01:12:35;;;;;;;4.35;3.67;;;;;;;16.54;53.03;100483.24;1686989;83;21541;-69
2021/11/07 01:15:01;;;;;;;7.20;4.47;;;;;;;16.53;53.01;100480.23;1687721;84;21019;-68
2021/11/07 01:17:29;;;;;;;4.97;4.17;;;;;;;16.53;53.01;100464.95;1689578;83;21037;-68
2021/11/07 01:19:56;;;;;;;5.12;3.92;;;;;;;16.53;52.98;100461.45;1696932;84;21045;-68
2021/11/07 01:22:32;;;;;;;4.72;3.65;;;;;;;16.53;52.96;100466.30;1732105;81;21101;-68
2021/11/07 01:24:59;;;;;;;4.62;3.80;;;;;;;16.52;52.98;100461.97;1722465;82;22173;-68
2021/11/07 01:27:31;;;;;;;4.33;3.77;;;;;;;16.52;52.97;100463.31;1690022;84;21025;-68
2021/11/07 01:29:55;;;;;;;4.58;3.95;;;;;;;16.51;52.92;100459.80;1699343;82;21003;-67
2021/11/07 01:32:23;;;;;;;4.92;3.80;;;;;;;16.50;52.88;100450.08;1703467;83;21058;-67
2021/11/07 01:34:58;;;;;;;4.58;4.05;;;;;;;16.49;52.87;100447.58;1709774;83;22046;-67
2021/11/07 01:37:21;;;;;;;4.10;3.67;;;;;;;16.49;52.87;100446.24;1724280;82;21979;-68
2021/11/07 01:39:56;;;;;;;4.42;3.80;;;;;;;16.46;52.88;100442.09;1725800;82;21081;-68
2021/11/07 01:44:51;;;;;;;5.00;4.37;;;;;;;16.45;52.86;100444.97;1699814;83;20998;-67
2021/11/07 01:47:15;;;;;;;4.42;4.03;;;;;;;16.45;52.85;100438.26;1733001;81;21125;-68
2021/11/07 01:49:43;;;;;;;4.28;3.87;;;;;;;16.45;52.81;100439.08;1736407;82;21148;-67
2021/11/07 01:52:10;;;;;;;4.20;3.70;;;;;;;16.43;52.79;100441.64;1728936;80;21097;-67
2021/11/07 01:54:51;;;;;;;4.47;3.98;;;;;;;16.43;52.77;100440.30;1738830;81;21491;-68
2021/11/07 01:57:28;;;;;;;4.30;3.65;;;;;;;16.42;52.76;100439.48;1740012;81;21148;-68
2021/11/07 01:59:59;;;;;;;4.03;3.58;;;;;;;16.40;52.72;100444.20;1737589;82;21045;-68
2021/11/07 02:02:32;;;;;;;5.47;4.28;;;;;;;16.39;52.78;100451.09;1738863;80;21133;-69
2021/11/07 02:04:58;;;;;;;4.62;4.20;;;;;;;16.37;52.77;100441.89;1701893;83;21524;-69
2021/11/07 02:07:25;;;;;;;4.30;3.85;;;;;;;16.37;52.75;100446.42;1739281;80;21503;-67
2021/11/07 02:09:51;;;;;;;4.80;3.90;;;;;;;16.36;52.74;100444.75;1708902;82;21029;-68
2021/11/07 02:12:18;;;;;;;5.35;4.35;;;;;;;16.35;52.72;100436.41;1715678;82;21045;-68
2021/11/07 02:14:45;;;;;;;4.00;3.60;;;;;;;16.35;52.69;100441.77;1705726;82;21147;-68
2021/11/07 02:17:12;;;;;;;4.70;4.22;;;;;;;16.34;52.72;100437.41;1733882;80;21011;-68
2021/11/07 02:19:45;;;;;;;4.25;3.55;;;;;;;16.33;52.70;100434.42;1740194;82;21077;-68
2021/11/07 02:22:12;;;;;;;4.85;4.15;;;;;;;16.30;52.71;100437.80;1728954;80;21077;-67
2021/11/07 02:24:41;;;;;;;4.30;3.90;;;;;;;16.29;52.69;100445.51;1733839;80;21058;-67
2021/11/07 02:27:08;;;;;;;4.35;3.95;;;;;;;16.29;52.69;100448.19;1741209;80;21194;-67
2021/11/07 02:29:36;;;;;;;4.12;3.72;;;;;;;16.28;52.66;100454.59;1727844;80;21512;-67
2021/11/07 02:32:04;;;;;;;4.97;4.08;;;;;;;16.29;52.66;100456.75;1707069;82;21061;-66
2021/11/07 02:34:32;;;;;;;4.65;3.92;;;;;;;16.28;52.65;100456.41;1700305;82;21060;-67
2021/11/07 02:36:59;;;;;;;4.53;4.03;;;;;;;16.25;52.63;100445.56;1703372;82;21524;-68
2021/11/07 02:39:26;;;;;;;4.05;3.67;;;;;;;16.24;52.63;100446.58;1698395;82;21965;-68
2021/11/07 02:41:52;;;;;;;4.53;4.03;;;;;;;16.23;52.63;100444.92;1695690;82;21584;-67
2021/11/07 02:44:36;;;;;;;4.40;3.80;;;;;;;16.23;52.61;100436.89;1704828;82;21513;-69
2021/11/07 02:47:08;;;;;;;4.80;4.10;;;;;;;16.21;52.61;100433.56;1705423;82;21009;-68
2021/11/07 02:49:35;;;;;;;4.37;3.70;;;;;;;16.20;52.63;100433.75;1707901;82;21072;-69
2021/11/07 02:52:03;;;;;;;4.53;3.80;;;;;;;16.18;52.63;100428.56;1705664;82;21803;-68
2021/11/07 02:54:29;;;;;;;4.25;3.80;;;;;;;16.17;52.62;100431.42;1702108;82;21056;-69
2021/11/07 02:56:58;;;;;;;4.78;4.30;;;;;;;16.16;52.65;100417.72;1705487;82;21045;-69
2021/11/07 02:59:29;;;;;;;4.85;3.80;;;;;;;16.15;52.63;100416.05;1697001;82;21532;-69
2021/11/07 03:01:57;;;;;;;6.67;4.22;;;;;;;16.13;52.62;100421.62;1704464;82;21017;-68
2021/11/07 03:04:24;;;;;;;4.80;4.00;;;;;;;16.13;52.62;100422.95;1710245;82;22910;-69
2021/11/07 03:06:52;;;;;;;3.90;3.50;;;;;;;16.11;52.64;100423.66;1702747;82;21045;-69
2021/11/07 03:09:22;;;;;;;4.40;3.98;;;;;;;16.09;52.63;100423.02;1715276;82;21040;-68
2021/11/07 03:11:50;;;;;;;4.58;3.75;;;;;;;16.08;52.63;100427.52;1710226;82;21504;-69
2021/11/07 03:14:21;;;;;;;5.08;4.37;;;;;;;16.08;52.62;100432.88;1710092;82;21032;-68
2021/11/07 03:16:49;;;;;;;4.85;4.10;;;;;;;16.06;52.61;100422.86;1729531;82;21163;-68
2021/11/07 03:19:16;;;;;;;4.12;3.62;;;;;;;16.06;52.62;100437.59;1692935;82;21049;-69
2021/11/07 03:21:43;;;;;;;5.97;3.80;;;;;;;16.05;52.61;100431.08;1712163;82;21069;-68
2021/11/07 03:24:11;;;;;;;4.22;3.83;;;;;;;16.04;52.59;100431.59;1703829;82;21082;-69
2021/11/07 03:26:38;;;;;;;3.87;3.40;;;;;;;16.04;52.59;100432.94;1686398;82;21078;-68
2021/11/07 03:29:08;;;;;;;4.45;4.00;;;;;;;16.02;52.55;100422.92;1710074;82;21148;-68
2021/11/07 03:31:41;;;;;;;4.33;3.70;;;;;;;16.00;52.55;100424.95;1692909;83;21602;-68
2021/11/07 03:34:07;;;;;;;4.62;4.22;;;;;;;15.99;52.54;100429.16;1705713;82;21030;-68
2021/11/07 03:36:43;;;;;;;4.90;4.03;;;;;;;16.00;52.56;100428.97;1707082;82;21505;-68
2021/11/07 03:39:01;;;;;;;4.00;3.65;;;;;;;15.99;52.53;100430.49;1703321;82;21046;-69
2021/11/07 03:41:27;;;;;;;4.37;3.90;;;;;;;15.97;52.52;100430.67;1709863;82;21139;-69
2021/11/07 03:43:54;;;;;;;4.53;3.98;;;;;;;15.98;52.54;100422.15;1696857;82;21018;-69
2021/11/07 03:46:20;;;;;;;4.35;3.95;;;;;;;15.87;52.48;100406.02;1703375;82;21052;-70
2021/11/07 03:48:47;;;;;;;4.92;4.30;;;;;;;15.96;52.48;100413.47;1712818;82;21151;-69
2021/11/07 03:51:15;;;;;;;4.33;3.77;;;;;;;15.94;52.49;100414.98;1697556;82;21117;-69
2021/11/07 03:53:41;;;;;;;4.37;3.98;;;;;;;15.94;52.46;100417.67;1711298;82;21140;-69
2021/11/07 03:56:08;;;;;;;4.10;3.72;;;;;;;15.92;52.46;100419.19;1703183;82;21100;-67
2021/11/07 03:58:35;;;;;;;4.85;4.10;;;;;;;15.91;52.44;100417.52;1697201;82;21053;-68
2021/11/07 04:01:01;;;;;;;4.22;3.80;;;;;;;15.91;52.41;100415.34;1696145;82;21084;-68
2021/11/07 04:03:28;;;;;;;4.40;4.00;;;;;;;15.89;52.42;100412.03;1704466;82;22138;-67
2021/11/07 04:05:54;;;;;;;4.37;3.98;;;;;;;15.88;52.40;100413.88;1699221;82;21128;-69
2021/11/07 04:08:21;;;;;;;5.30;4.17;;;;;;;15.88;52.40;100411.72;1698096;82;21124;-68
2021/11/07 04:10:47;;;;;;;5.90;4.65;;;;;;;15.86;52.38;100410.56;1702659;82;21361;-67
2021/11/07 04:13:14;;;;;;;4.45;4.05;;;;;;;15.86;52.35;100417.78;1698940;82;21901;-68
2021/11/07 04:15:41;;;;;;;4.60;3.95;;;;;;;15.83;52.33;100414.94;1712067;82;21520;-68
2021/11/07 04:18:07;;;;;;;5.95;4.10;;;;;;;15.84;52.32;100407.72;1700476;82;21166;-68
2021/11/07 04:20:34;;;;;;;4.10;3.70;;;;;;;15.81;52.31;100404.92;1713002;82;21052;-67
2021/11/07 04:23:01;;;;;;;4.50;4.03;;;;;;;15.80;52.31;100395.23;1678283;83;21058;-68
2021/11/07 04:25:29;;;;;;;4.62;3.98;;;;;;;15.79;52.32;100393.56;1682162;84;21007;-67
2021/11/07 04:27:55;;;;;;;3.98;3.50;;;;;;;15.78;52.33;100398.61;1687098;83;21530;-68
2021/11/07 04:30:21;;;;;;;4.85;4.17;;;;;;;15.77;52.31;100403.63;1689778;84;21097;-68
2021/11/07 04:32:48;;;;;;;5.22;4.25;;;;;;;15.76;52.32;100388.59;1724887;80;21101;-69
2021/11/07 04:35:14;;;;;;;4.62;4.15;;;;;;;15.76;52.30;100400.65;1690033;82;21093;-69
2021/11/07 04:37:42;;;;;;;5.22;4.12;;;;;;;15.75;52.28;100399.48;1733328;80;21082;-68
2021/11/07 04:40:13;;;;;;;4.72;3.85;;;;;;;15.75;52.26;100403.50;1728694;80;21087;-68
2021/11/07 04:42:41;;;;;;;4.42;4.03;;;;;;;15.73;52.27;100399.67;1737747;82;21090;-69
2021/11/07 04:45:07;;;;;;;4.20;3.80;;;;;;;15.72;52.24;100400.64;1737672;82;21014;-70
2021/11/07 04:47:34;;;;;;;4.20;3.80;;;;;;;15.72;52.25;100403.31;1744636;80;21092;-69
2021/11/07 04:50:00;;;;;;;4.67;4.15;;;;;;;15.71;52.24;100405.69;1735546;80;21074;-69
2021/11/07 04:52:27;;;;;;;5.00;4.50;;;;;;;15.70;52.24;100416.06;1687915;82;21049;-68
2021/11/07 04:54:53;;;;;;;5.03;4.15;;;;;;;15.69;52.22;100407.72;1691305;82;22380;-69
2021/11/07 04:57:20;;;;;;;4.72;4.17;;;;;;;15.67;52.21;100405.73;1690919;82;22064;-67
2021/11/07 04:59:46;;;;;;;4.70;4.17;;;;;;;15.66;52.19;100408.91;1692333;82;21061;-67
2021/11/07 05:02:12;;;;;;;5.00;4.17;;;;;;;15.66;52.18;100410.24;1727153;82;21085;-68
2021/11/07 05:04:38;;;;;;;5.08;4.53;;;;;;;15.65;52.15;100408.59;1744022;82;21077;-68
2021/11/07 05:07:05;;;;;;;4.60;4.17;;;;;;;15.65;52.14;100411.80;1731181;80;22142;-68
2021/11/07 05:09:31;;;;;;;4.75;4.03;;;;;;;15.64;52.14;100411.45;1687411;82;21081;-68
2021/11/07 05:11:58;;;;;;;5.15;3.98;;;;;;;15.63;52.15;100421.86;1737278;80;21011;-69
2021/11/07 05:14:24;;;;;;;4.58;4.15;;;;;;;15.63;52.12;100423.20;1728783;82;21349;-68
2021/11/07 05:16:51;;;;;;;4.72;4.28;;;;;;;15.62;52.12;100437.08;1734022;80;21573;-68
2021/11/07 05:19:17;;;;;;;5.17;4.50;;;;;;;15.61;52.14;100434.61;1727639;80;21058;-67
2021/11/07 05:21:43;;;;;;;4.95;4.25;;;;;;;15.61;52.09;100435.95;1735510;82;21470;-68
2021/11/07 05:24:10;;;;;;;5.10;4.05;;;;;;;15.60;52.09;100429.73;1736982;82;21092;-68
2021/11/07 05:26:36;;;;;;;5.60;4.67;;;;;;;15.59;52.05;100435.27;1725484;80;21038;-68
2021/11/07 05:29:05;;;;;;;4.60;4.20;;;;;;;15.60;52.05;100442.30;1739951;80;21084;-69
2021/11/07 05:31:32;;;;;;;4.87;4.37;;;;;;;15.58;52.04;100438.98;1726850;80;21168;-68
2021/11/07 05:33:58;;;;;;;6.08;4.50;;;;;;;15.57;52.04;100448.02;1721598;80;21054;-68
2021/11/07 05:36:25;;;;;;;5.12;4.60;;;;;;;15.56;52.01;100446.36;1727081;80;21029;-69
2021/11/07 05:38:51;;;;;;;4.85;4.35;;;;;;;15.55;51.99;100445.55;1736943;80;21027;-68
2021/11/07 05:41:17;;;;;;;5.00;4.30;;;;;;;15.54;52.00;100438.00;1718314;82;21554;-68
2021/11/07 05:46:34;;;;;;;4.67;4.28;;;;;;;15.57;51.95;100428.78;1865519;76;28029;-70
2021/11/07 05:49:02;;;;;;;5.45;4.42;;;;;;;15.51;52.00;100437.52;1831155;77;20965;-69
2021/11/07 05:51:29;;;;;;;5.97;4.65;;;;;;;15.52;51.97;100432.51;1825977;77;21122;-68
2021/11/07 05:53:55;;;;;;;4.95;4.45;;;;;;;15.51;51.94;100422.31;1825520;77;20982;-68
2021/11/07 05:56:21;;;;;;;5.53;4.47;;;;;;;15.50;51.95;100423.31;1826431;77;21054;-68
2021/11/07 05:58:47;;;;;;;5.58;4.95;;;;;;;15.51;51.94;100415.63;1848771;77;20965;-67
2021/11/07 06:01:14;;;;;;;5.28;4.62;;;;;;;15.50;51.95;100415.28;1835824;77;21288;-68
2021/11/07 06:03:40;;;;;;;5.30;4.80;;;;;;;15.51;51.92;100416.95;1789440;79;21098;-68
2021/11/07 06:06:06;;;;;;;4.78;4.28;;;;;;;15.52;51.92;100416.44;1789605;78;21034;-68
2021/11/07 06:08:33;;;;;;;5.10;4.60;;;;;;;15.51;51.90;100422.80;1772926;79;21097;-68
2021/11/07 06:11:00;;;;;;;4.80;4.30;;;;;;;15.51;51.88;100423.65;1772350;79;21014;-67
2021/11/07 06:13:26;;;;;;;5.47;4.45;;;;;;;15.51;51.87;100422.31;1809828;78;21068;-70
2021/11/07 06:15:52;;;;;;;4.97;4.37;;;;;;;15.52;51.87;100419.94;1769751;80;21146;-68
2021/11/07 06:18:19;;;;;;;5.42;4.58;;;;;;;15.52;51.86;100419.94;1779793;79;21002;-67
2021/11/07 06:20:45;;;;;;;5.70;4.65;;;;;;;15.52;51.82;100422.62;1781503;79;21052;-68
2021/11/07 06:23:12;;;;;;;6.08;4.67;;;;;;;15.53;51.83;100418.12;1779008;79;21042;-68
2021/11/07 06:25:39;;;;;;;5.55;4.78;;;;;;;15.54;51.80;100419.25;1782650;80;21053;-67
2021/11/07 06:28:05;;;;;;;5.00;4.50;;;;;;;15.55;51.80;100429.48;1776815;80;21065;-67
2021/11/07 06:30:32;;;;;;;3.92;3.45;;;;;;;15.55;51.77;100424.12;1781957;80;21093;-69
2021/11/07 06:32:59;;;;;;;4.58;4.08;;;;;;;15.56;51.76;100425.77;1780588;80;21041;-69
2021/11/07 06:35:26;;;;;;;4.97;4.50;;;;;;;15.56;51.72;100427.63;1779871;79;21065;-70
2021/11/07 06:37:55;;;;;;;4.62;4.10;;;;;;;15.57;51.72;100419.41;1781182;79;21049;-67
2021/11/07 06:40:21;;;;;;;4.90;4.00;;;;;;;15.57;51.69;100416.73;1801230;78;23174;-66
2021/11/07 06:42:49;;;;;;;5.20;4.70;;;;;;;15.59;51.69;100425.89;1795317;78;21347;-68
2021/11/07 06:45:15;;;;;;;4.95;4.45;;;;;;;15.59;51.65;100425.41;1795390;78;21513;-68
2021/11/07 06:47:43;;;;;;;5.22;4.72;;;;;;;15.60;51.66;100423.55;1806926;78;20998;-68
2021/11/07 06:50:15;;;;;;;5.42;4.70;;;;;;;15.61;51.62;100422.55;1847155;77;21016;-68
2021/11/07 06:52:40;;;;;;;4.20;3.77;;;;;;;15.62;51.61;100428.22;1777261;79;21843;-67
2021/11/07 06:55:07;;;;;;;7.10;5.22;;;;;;;15.63;51.62;100428.04;1777508;80;21025;-67
2021/11/07 06:57:34;;;;;;;7.53;5.05;;;;;;;15.65;53.08;100422.50;1763063;80;21563;-67
2021/11/07 07:00:05;;;;;;;7.17;5.17;;;;;;;15.67;54.18;100422.63;1759365;80;21010;-68
2021/11/07 07:02:33;;;;;;;5.97;5.00;;;;;;;15.69;54.46;100417.09;1781234;80;21725;-67
2021/11/07 07:05:03;;;;;;;5.90;4.58;;;;;;;15.70;54.51;100415.58;1768180;80;21146;-68
2021/11/07 07:07:34;;;;;;;4.95;4.45;;;;;;;15.72;54.50;100412.69;1831405;77;21033;-68
2021/11/07 07:10:00;;;;;;;5.95;4.67;;;;;;;15.73;54.42;100401.00;1828582;77;21105;-67
2021/11/07 07:12:33;;;;;;;5.80;4.60;;;;;;;15.75;54.32;100393.61;1842807;77;21524;-67
2021/11/07 07:23:19;;;;;;;5.05;4.40;;;;;;;15.80;53.87;100371.12;1840073;77;21057;-67
2021/11/07 07:34:00;;;;;;;5.78;4.45;;;;;;;15.85;53.52;100360.66;1773859;79;21467;-69
2021/11/07 07:36:21;;;;;;;7.40;5.17;;;;;;;15.86;53.43;100362.34;1762820;79;21025;-69
2021/11/07 07:38:48;;;;;;;5.30;4.72;;;;;;;15.87;53.38;100357.28;1832232;77;21044;-67
2021/11/07 07:41:14;;;;;;;5.87;4.40;;;;;;;15.90;53.31;100352.08;1841984;77;21536;-67
2021/11/07 07:43:41;;;;;;;5.97;4.87;;;;;;;15.93;53.26;100354.36;1824064;77;21506;-67
2021/11/07 07:46:11;;;;;;;6.12;4.53;;;;;;;15.95;53.18;100355.52;1815105;77;21013;-68
2021/11/07 07:48:41;;;;;;;6.33;4.37;;;;;;;15.97;53.09;100347.60;1817857;77;21018;-69
2021/11/07 07:51:04;;;;;;;5.25;4.45;;;;;;;16.00;53.01;100347.76;1825018;77;21001;-67
2021/11/07 07:53:30;;;;;;;6.47;4.60;;;;;;;16.03;52.94;100348.70;1780846;79;21044;-68
2021/11/07 07:55:57;;;;;;;5.58;4.47;;;;;;;16.06;52.87;100341.64;1777696;80;21140;-68
2021/11/07 07:58:23;;;;;;;4.78;4.28;;;;;;;16.09;52.76;100347.97;1825475;77;20998;-69
2021/11/07 08:00:50;;;;;;;6.53;4.50;;;;;;;16.13;52.71;100359.97;1808786;77;21056;-67
2021/11/07 08:03:16;;;;;;;4.70;4.17;;;;;;;16.16;52.64;100355.55;1829046;77;21040;-70
2021/11/07 08:05:43;;;;;;;5.95;4.30;;;;;;;16.22;52.58;100366.03;1819772;77;21013;-67
2021/11/07 08:08:09;;;;;;;5.05;4.22;;;;;;;16.25;52.48;100358.96;1825477;77;21275;-68
2021/11/07 08:10:36;;;;;;;5.65;4.33;;;;;;;16.31;52.44;100360.88;1755905;81;21040;-68
2021/11/07 08:13:02;;;;;;;5.40;4.05;;;;;;;16.35;52.37;100354.63;1831977;77;21022;-67
2021/11/07 08:15:29;;;;;;;4.53;3.87;;;;;;;16.40;52.29;100351.69;1815537;77;20994;-68
2021/11/07 08:17:55;;;;;;;5.37;4.60;;;;;;;16.45;52.21;100341.72;1812172;77;21107;-67
2021/11/07 08:20:22;;;;;;;4.95;4.45;;;;;;;16.51;52.11;100333.75;1818493;77;21125;-68
2021/11/07 08:22:49;;;;;;;4.67;4.17;;;;;;;16.57;52.03;100342.85;1840380;77;20986;-67
2021/11/07 08:25:20;;;;;;;4.37;3.92;;;;;;;16.63;51.99;100332.72;1832714;77;21019;-67
2021/11/07 08:27:45;;;;;;;5.28;3.83;;;;;;;16.69;51.90;100326.57;1809193;77;21070;-68
2021/11/07 08:30:14;;;;;;;5.58;4.50;;;;;;;16.75;51.84;100333.02;1809653;77;21041;-67
2021/11/07 08:32:40;;;;;;;4.58;4.12;;;;;;;16.82;51.79;100323.17;1806635;77;21117;-68
2021/11/07 08:35:07;;;;;;;6.70;4.33;;;;;;;16.88;51.69;100327.79;1812331;77;21252;-67
2021/11/07 08:37:45;;;;;;;5.45;4.45;;;;;;;16.96;51.63;100317.91;1814827;77;21478;-67
2021/11/07 08:40:10;;;;;;;5.15;4.28;;;;;;;17.02;51.61;100323.34;1814371;77;21038;-68
2021/11/07 08:42:49;;;;;;;4.70;4.12;;;;;;;17.09;51.62;100315.31;1805306;77;21040;-68
2021/11/07 09:01:45;;;;;;;5.10;4.08;;;;;;;17.58;50.91;100288.02;1814904;78;21047;-68
2021/11/07 09:04:37;;;;;;;4.47;4.08;;;;;;;17.64;50.80;100285.86;1824506;77;21010;-69
2021/11/07 09:09:32;;;;;;;4.42;3.52;;;;;;;17.76;50.56;100277.52;1772161;79;21093;-70
2021/11/07 09:12:00;;;;;;;4.50;3.80;;;;;;;17.82;50.48;100275.36;1845920;77;21025;-70
2021/11/07 09:14:34;;;;;;;4.65;4.12;;;;;;;17.88;50.37;100265.17;1827602;77;21096;-68
2021/11/07 09:16:59;;;;;;;4.30;3.87;;;;;;;17.93;50.32;100260.55;1815392;77;20986;-69
2021/11/07 09:19:27;;;;;;;4.42;4.00;;;;;;;17.97;50.31;100259.11;1833536;77;21038;-72
2021/11/07 09:22:03;;;;;;;5.20;4.40;;;;;;;18.01;50.29;100254.16;1771106;80;21523;-72
2021/11/07 09:24:31;;;;;;;5.35;3.92;;;;;;;18.04;50.41;100256.41;1755678;80;21287;-71
2021/11/07 09:26:55;;;;;;;4.90;4.15;;;;;;;18.07;50.29;100252.80;1782136;79;21053;-72
2021/11/07 09:32:14;;;;;;;4.00;3.45;;;;;;;18.16;49.99;100253.98;1740981;80;21016;-68
2021/11/07 09:34:58;;;;;;;4.53;3.80;;;;;;;18.20;49.89;100244.46;1779739;79;21006;-70
2021/11/07 09:37:13;;;;;;;4.05;3.62;;;;;;;18.25;49.83;100241.96;1771741;79;21133;-68
2021/11/07 09:39:50;;;;;;;4.05;3.58;;;;;;;18.30;49.76;100242.70;1795418;79;21061;-68
2021/11/07 09:44:54;;;;;;;4.67;3.70;;;;;;;18.40;49.59;100231.01;1786676;79;21023;-68
2021/11/07 09:47:21;;;;;;;3.65;3.35;;;;;;;18.46;49.59;100228.30;1824552;77;21753;-68
2021/11/07 09:49:48;;;;;;;4.40;3.27;;;;;;;18.52;49.53;100223.95;1831281;77;21152;-67
2021/11/07 09:52:33;;;;;;;4.22;3.83;;;;;;;18.58;49.49;100219.60;1769519;79;21027;-67
2021/11/07 09:54:52;;;;;;;4.78;3.92;;;;;;;18.63;49.39;100215.25;1766323;79;21090;-68
2021/11/07 09:57:21;;;;;;;4.65;3.72;;;;;;;18.69;49.33;100195.28;1824690;77;21487;-68
2021/11/07 09:59:44;;;;;;;4.30;3.90;;;;;;;18.75;49.31;100184.48;1831083;77;21509;-66
2021/11/07 10:02:12;;;;;;;4.95;3.77;;;;;;;18.83;49.33;100174.89;1827581;77;21518;-68
2021/11/07 10:04:41;;;;;;;4.10;3.70;;;;;;;18.92;49.39;100166.57;1824224;77;21041;-70
2021/11/07 10:07:28;;;;;;;4.17;3.52;;;;;;;19.00;49.41;100175.75;1820918;77;21552;-69
2021/11/07 10:09:58;;;;;;;3.87;3.47;;;;;;;19.09;49.44;100162.89;1828738;77;21073;-69
2021/11/07 10:12:42;;;;;;;4.92;3.95;;;;;;;19.20;49.54;100170.27;1826387;77;21049;-68
2021/11/07 10:15:27;;;;;;;4.45;4.05;;;;;;;19.30;49.60;100161.23;1818592;77;21101;-68
2021/11/07 10:17:56;;;;;;;4.87;3.75;;;;;;;19.40;49.61;100171.01;1819762;77;21036;-68
2021/11/07 10:20:37;;;;;;;4.42;3.40;;;;;;;19.51;49.48;100170.01;1821208;77;22519;-67
2021/11/07 10:23:09;;;;;;;4.15;3.75;;;;;;;19.59;49.48;100165.73;1837226;77;21060;-68
2021/11/07 10:25:39;;;;;;;3.83;3.40;;;;;;;19.69;49.46;100164.72;1836833;77;20990;-69
2021/11/07 10:28:30;;;;;;;4.35;3.80;;;;;;;19.81;49.43;100179.70;1833579;77;21199;-68
2021/11/07 10:31:15;;;;;;;4.53;3.65;;;;;;;19.91;49.38;100153.61;1827138;77;21033;-69
2021/11/07 10:34:04;;;;;;;4.95;4.03;;;;;;;20.01;49.36;100150.73;1826703;77;21080;-68
2021/11/07 10:53:14;;;;;;;3.47;3.17;;;;;;;20.65;48.44;100143.83;1788642;79;21026;-67
2021/11/07 10:55:47;;;;;;;3.72;3.33;;;;;;;20.74;48.32;100134.89;1779103;79;21115;-68
2021/11/07 10:58:15;;;;;;;3.83;3.52;;;;;;;20.81;48.20;100128.89;1804213;78;21491;-67
2021/11/07 11:00:47;;;;;;;3.98;3.52;;;;;;;20.89;48.09;100111.56;1777238;79;21025;-68
2021/11/07 11:03:19;;;;;;;3.25;2.85;;;;;;;20.95;48.10;100108.77;1796912;78;21695;-69
2021/11/07 11:06:09;;;;;;;3.20;2.90;;;;;;;21.04;48.09;100107.12;1803041;78;21068;-69
2021/11/07 11:08:52;;;;;;;3.67;3.37;;;;;;;21.11;48.04;100108.69;1800316;78;21082;-71
2021/11/07 11:11:36;;;;;;;3.52;2.77;;;;;;;21.21;47.88;100104.89;1801809;78;21031;-70
2021/11/07 11:14:33;;;;;;;3.15;2.85;;;;;;;21.29;47.69;100094.83;1795924;78;21842;-70
2021/11/07 11:17:04;;;;;;;3.40;3.08;;;;;;;21.35;47.53;100100.12;1775695;78;21033;-69
2021/11/07 11:28:06;;;;;;;3.12;2.83;;;;;;;21.53;47.03;100105.20;1784277;79;21089;-66
2021/11/07 11:38:42;;;;;;;3.72;3.12;;;;;;;21.46;46.80;100051.25;1778640;78;21616;-69
2021/11/07 11:41:13;;;;;;;3.00;2.70;;;;;;;21.43;46.81;100059.78;1787437;78;21049;-67
2021/11/07 11:43:45;;;;;;;3.17;2.87;;;;;;;21.41;46.78;100053.25;1794907;78;21060;-68
2021/11/07 11:46:28;;;;;;;3.47;2.80;;;;;;;21.39;46.78;100041.03;1803607;78;21057;-71
2021/11/07 12:03:12;;;;;;;3.52;3.15;;;;;;;21.19;46.65;100031.90;1827388;77;21129;-68
2021/11/07 12:05:42;;;;;;;;;;;;;;;21.16;46.65;100021.54;1776169;79;21049;-68
2021/11/07 12:08:18;;;;;;;3.12;2.83;;;;;;;21.14;46.62;100023.12;1773409;79;20195;-69
2021/11/07 12:10:58;;;;;;;3.85;3.37;;;;;;;21.11;46.61;100034.91;1758633;79;21089;-69
2021/11/07 12:13:48;;;;;;;3.60;3.30;;;;;;;21.10;46.50;100025.17;1776243;79;21026;-68
2021/11/07 12:16:23;;;;;;;3.60;3.30;;;;;;;21.10;46.43;100018.41;1753642;79;21229;-68
2021/11/07 12:19:02;;;;;;;3.27;2.98;;;;;;;21.08;46.41;100009.72;1773681;79;21505;-69
2021/11/07 12:21:55;;;;;;;3.10;2.80;;;;;;;21.07;46.34;100014.81;1763020;80;21053;-68
2021/11/07 12:24:26;;;;;;;2.60;2.40;;;;;;;21.06;46.30;100002.38;1780972;79;21018;-68
2021/11/07 12:26:53;;;;;;;3.20;2.90;;;;;;;21.03;46.30;99993.37;1806597;79;21042;-68
2021/11/07 12:29:39;;;;;;;3.83;3.40;;;;;;;20.99;46.27;99983.55;1785091;79;21084;-68
2021/11/07 12:32:07;;;;;;;3.55;3.20;;;;;;;20.96;46.32;99994.30;1762354;80;21045;-68
2021/11/07 12:34:59;;;;;;;3.72;3.33;;;;;;;20.93;46.36;99990.70;1814003;77;21009;-68
2021/11/07 12:40:46;;;;;;;3.33;3.02;;;;;;;20.87;46.33;99987.58;1827136;77;21529;-70
2021/11/07 12:43:17;;;;;;;3.65;3.12;;;;;;;20.81;46.39;99985.27;1807689;77;21206;-69
2021/11/07 12:45:47;;;;;;;3.23;2.83;;;;;;;20.77;46.42;99982.73;1832371;77;21053;-69
2021/11/07 12:48:37;;;;;;;4.05;3.17;;;;;;;20.73;46.38;99965.88;1829971;77;21138;-69
2021/11/07 12:51:05;;;;;;;3.15;2.75;;;;;;;20.71;46.33;99977.44;1814998;78;21054;-69
2021/11/07 12:53:57;;;;;;;3.00;2.75;;;;;;;20.66;46.24;99966.49;1817587;78;21719;-69
2021/11/07 12:56:46;;;;;;;3.00;2.80;;;;;;;20.62;46.17;99960.19;1815336;78;21207;-69
2021/11/07 12:59:22;;;;;;;3.15;2.85;;;;;;;20.59;46.17;99962.48;1818486;78;21041;-70
2021/11/07 13:02:11;;;;;;;3.20;2.90;;;;;;;20.54;46.18;99956.97;1807307;78;21096;-68
2021/11/07 13:04:51;;;;;;;4.75;3.50;;;;;;;20.51;46.18;99958.23;1805903;78;21582;-71
2021/11/07 13:13:16;;;;;;;2.90;2.55;;;;;;;20.33;46.16;99960.44;1816636;78;21088;-68
2021/11/07 13:15:51;;;;;;;3.40;3.10;;;;;;;20.28;46.21;99963.52;1805750;78;21015;-69
2021/11/07 13:25:57;;;;;;;4.55;4.00;;;;;;;20.04;46.23;99952.06;1807748;78;21514;-71
2021/11/07 13:31:14;;;;;;;3.55;3.25;;;;;;;19.96;46.26;99946.17;1786104;78;21037;-71
2021/11/07 13:33:41;;;;;;;4.08;3.67;;;;;;;19.91;46.25;99947.36;1815095;78;21128;-69
2021/11/07 13:36:12;;;;;;;3.87;3.42;;;;;;;19.84;46.27;99928.57;1813382;78;21545;-70
2021/11/07 13:38:45;;;;;;;3.60;3.30;;;;;;;19.79;46.27;99929.23;1808827;78;21123;-69
2021/11/07 13:41:16;;;;;;;4.08;3.70;;;;;;;19.73;46.28;99930.13;1812989;77;24052;-69
2021/11/07 13:43:51;;;;;;;3.37;3.05;;;;;;;19.68;46.30;99921.03;1817305;78;21524;-70
2021/11/07 13:46:17;;;;;;;4.35;3.55;;;;;;;19.62;46.31;99914.16;1814616;78;21043;-69
2021/11/07 13:48:43;;;;;;;3.92;3.52;;;;;;;19.58;46.33;99901.34;1816892;78;21814;-70
2021/11/07 13:51:10;;;;;;;3.45;3.12;;;;;;;19.51;46.34;99895.19;1806137;77;21025;-69
2021/11/07 13:53:39;;;;;;;3.70;3.37;;;;;;;19.46;46.41;99893.17;1815025;78;21024;-70